sensor_id;sensor_type;location;lat;lon;timestamp;P1;durP1;ratioP1;P2;durP2;ratioP2
4430;SDS011;2228;48.140;11.488;2022-11-04T00:01:25;7.85;;;5.00;;
4430;SDS011;2228;48.140;11.488;2022-11-04T00:03:52;9.10;;;4.50;;
4430;SDS011;2228;48.140;11.488;2022-11-04T00:06:20;9.05;;;4.38;;
4430;SDS011;2228;48.140;11.488;2022-11-04T00:08:48;7.90;;;3.90;;
4430;SDS011;2228;48.140;11.488;2022-11-04T00:11:15;7.23;;;3.73;;
4430;SDS011;2228;48.140;11.488;2022-11-04T00:14:00;7.28;;;4.20;;
4430;SDS011;2228;48.140;11.488;2022-11-04T00:16:27;8.52;;;4.40;;
4430;SDS011;2228;48.140;11.488;2022-11-04T00:19:11;9.30;;;3.50;;
4430;SDS011;2228;48.140;11.488;2022-11-04T00:21:39;6.10;;;3.47;;
4430;SDS011;2228;48.140;11.488;2022-11-04T00:24:24;4.30;;;3.53;;
4430;SDS011;2228;48.140;11.488;2022-11-04T00:27:08;3.90;;;3.00;;
4430;SDS011;2228;48.140;11.488;2022-11-04T00:29:53;5.50;;;3.60;;
4430;SDS011;2228;48.140;11.488;2022-11-04T00:32:20;5.55;;;3.90;;
4430;SDS011;2228;48.140;11.488;2022-11-04T00:35:05;4.57;;;3.17;;
4430;SDS011;2228;48.140;11.488;2022-11-04T00:37:35;5.45;;;3.60;;
4430;SDS011;2228;48.140;11.488;2022-11-04T00:40:03;4.47;;;2.95;;
4430;SDS011;2228;48.140;11.488;2022-11-04T00:42:31;6.32;;;3.25;;
4430;SDS011;2228;48.140;11.488;2022-11-04T00:44:58;4.30;;;3.05;;
4430;SDS011;2228;48.140;11.488;2022-11-04T00:47:26;6.07;;;2.92;;
4430;SDS011;2228;48.140;11.488;2022-11-04T00:49:53;4.20;;;2.47;;
4430;SDS011;2228;48.140;11.488;2022-11-04T00:52:20;4.53;;;2.97;;
4430;SDS011;2228;48.140;11.488;2022-11-04T00:54:48;3.40;;;2.57;;
4430;SDS011;2228;48.140;11.488;2022-11-04T00:57:15;3.88;;;2.88;;
4430;SDS011;2228;48.140;11.488;2022-11-04T00:59:42;3.60;;;2.30;;
4430;SDS011;2228;48.140;11.488;2022-11-04T01:02:10;3.17;;;2.05;;
4430;SDS011;2228;48.140;11.488;2022-11-04T01:04:37;3.90;;;2.58;;
4430;SDS011;2228;48.140;11.488;2022-11-04T01:07:04;4.03;;;2.63;;
4430;SDS011;2228;48.140;11.488;2022-11-04T01:09:31;3.58;;;2.25;;
4430;SDS011;2228;48.140;11.488;2022-11-04T01:12:00;3.83;;;2.23;;
4430;SDS011;2228;48.140;11.488;2022-11-04T01:14:26;3.80;;;2.65;;
4430;SDS011;2228;48.140;11.488;2022-11-04T01:16:53;4.43;;;2.70;;
4430;SDS011;2228;48.140;11.488;2022-11-04T01:19:20;4.10;;;2.80;;
4430;SDS011;2228;48.140;11.488;2022-11-04T01:21:49;4.40;;;2.58;;
4430;SDS011;2228;48.140;11.488;2022-11-04T01:24:17;3.20;;;2.35;;
4430;SDS011;2228;48.140;11.488;2022-11-04T01:26:44;4.95;;;2.45;;
4430;SDS011;2228;48.140;11.488;2022-11-04T01:29:12;5.55;;;2.30;;
4430;SDS011;2228;48.140;11.488;2022-11-04T01:31:39;3.83;;;2.40;;
4430;SDS011;2228;48.140;11.488;2022-11-04T01:34:06;5.00;;;2.30;;
4430;SDS011;2228;48.140;11.488;2022-11-04T01:36:33;4.03;;;2.25;;
4430;SDS011;2228;48.140;11.488;2022-11-04T01:39:00;4.38;;;2.15;;
4430;SDS011;2228;48.140;11.488;2022-11-04T01:41:28;2.45;;;1.70;;
4430;SDS011;2228;48.140;11.488;2022-11-04T01:43:57;3.60;;;1.88;;
4430;SDS011;2228;48.140;11.488;2022-11-04T01:46:28;2.43;;;1.80;;
4430;SDS011;2228;48.140;11.488;2022-11-04T01:49:02;3.00;;;1.80;;
4430;SDS011;2228;48.140;11.488;2022-11-04T01:51:34;5.78;;;1.50;;
4430;SDS011;2228;48.140;11.488;2022-11-04T01:54:03;6.90;;;2.10;;
4430;SDS011;2228;48.140;11.488;2022-11-04T01:56:31;3.47;;;1.45;;
4430;SDS011;2228;48.140;11.488;2022-11-04T01:59:01;3.45;;;1.55;;
4430;SDS011;2228;48.140;11.488;2022-11-04T02:01:33;1.88;;;1.20;;
4430;SDS011;2228;48.140;11.488;2022-11-04T02:04:00;2.10;;;1.33;;
4430;SDS011;2228;48.140;11.488;2022-11-04T02:06:41;1.95;;;1.20;;
4430;SDS011;2228;48.140;11.488;2022-11-04T02:09:09;2.08;;;1.35;;
4430;SDS011;2228;48.140;11.488;2022-11-04T02:11:36;1.30;;;1.10;;
4430;SDS011;2228;48.140;11.488;2022-11-04T02:14:20;2.00;;;1.20;;
4430;SDS011;2228;48.140;11.488;2022-11-04T02:16:49;2.50;;;1.13;;
4430;SDS011;2228;48.140;11.488;2022-11-04T02:19:23;2.00;;;1.10;;
4430;SDS011;2228;48.140;11.488;2022-11-04T02:25:19;1.60;;;1.10;;
4430;SDS011;2228;48.140;11.488;2022-11-04T02:28:16;1.30;;;1.10;;
4430;SDS011;2228;48.140;11.488;2022-11-04T02:31:01;1.50;;;1.00;;
4430;SDS011;2228;48.140;11.488;2022-11-04T02:33:36;1.70;;;0.90;;
4430;SDS011;2228;48.140;11.488;2022-11-04T02:36:13;2.00;;;1.20;;
4430;SDS011;2228;48.140;11.488;2022-11-04T02:38:48;1.20;;;1.00;;
4430;SDS011;2228;48.140;11.488;2022-11-04T02:41:20;2.10;;;0.90;;
4430;SDS011;2228;48.140;11.488;2022-11-04T02:44:00;1.40;;;0.80;;
4430;SDS011;2228;48.140;11.488;2022-11-04T02:46:37;1.83;;;1.20;;
4430;SDS011;2228;48.140;11.488;2022-11-04T02:49:12;1.45;;;0.95;;
4430;SDS011;2228;48.140;11.488;2022-11-04T02:51:42;1.30;;;0.90;;
4430;SDS011;2228;48.140;11.488;2022-11-04T02:54:13;1.33;;;1.00;;
4430;SDS011;2228;48.140;11.488;2022-11-04T02:56:48;1.20;;;0.83;;
4430;SDS011;2228;48.140;11.488;2022-11-04T02:59:18;1.40;;;0.90;;
4430;SDS011;2228;48.140;11.488;2022-11-04T03:01:51;0.85;;;0.70;;
4430;SDS011;2228;48.140;11.488;2022-11-04T03:04:20;3.10;;;0.90;;
4430;SDS011;2228;48.140;11.488;2022-11-04T03:06:50;2.10;;;0.90;;
4430;SDS011;2228;48.140;11.488;2022-11-04T03:09:20;2.30;;;0.80;;
4430;SDS011;2228;48.140;11.488;2022-11-04T03:11:49;1.80;;;0.80;;
4430;SDS011;2228;48.140;11.488;2022-11-04T03:14:21;2.03;;;0.90;;
4430;SDS011;2228;48.140;11.488;2022-11-04T03:16:53;1.23;;;0.80;;
4430;SDS011;2228;48.140;11.488;2022-11-04T03:19:25;1.30;;;0.80;;
4430;SDS011;2228;48.140;11.488;2022-11-04T03:21:57;2.40;;;0.80;;
4430;SDS011;2228;48.140;11.488;2022-11-04T03:24:26;1.23;;;0.70;;
4430;SDS011;2228;48.140;11.488;2022-11-04T03:26:56;1.90;;;1.00;;
4430;SDS011;2228;48.140;11.488;2022-11-04T03:29:25;3.30;;;0.70;;
4430;SDS011;2228;48.140;11.488;2022-11-04T03:32:01;1.17;;;0.80;;
4430;SDS011;2228;48.140;11.488;2022-11-04T03:34:33;1.20;;;0.68;;
4430;SDS011;2228;48.140;11.488;2022-11-04T03:37:02;4.55;;;0.85;;
4430;SDS011;2228;48.140;11.488;2022-11-04T03:39:29;1.45;;;0.73;;
4430;SDS011;2228;48.140;11.488;2022-11-04T03:41:57;2.40;;;0.90;;
4430;SDS011;2228;48.140;11.488;2022-11-04T03:44:26;1.00;;;0.90;;
4430;SDS011;2228;48.140;11.488;2022-11-04T03:46:54;1.50;;;0.80;;
4430;SDS011;2228;48.140;11.488;2022-11-04T03:49:23;1.50;;;0.70;;
4430;SDS011;2228;48.140;11.488;2022-11-04T03:51:51;1.08;;;0.80;;
4430;SDS011;2228;48.140;11.488;2022-11-04T03:54:18;1.40;;;0.80;;
4430;SDS011;2228;48.140;11.488;2022-11-04T03:56:53;1.27;;;0.80;;
4430;SDS011;2228;48.140;11.488;2022-11-04T03:59:36;1.30;;;0.80;;
4430;SDS011;2228;48.140;11.488;2022-11-04T04:02:17;1.00;;;0.70;;
4430;SDS011;2228;48.140;11.488;2022-11-04T04:04:51;3.40;;;0.80;;
4430;SDS011;2228;48.140;11.488;2022-11-04T04:07:25;1.02;;;0.70;;
4430;SDS011;2228;48.140;11.488;2022-11-04T04:09:58;1.10;;;0.90;;
4430;SDS011;2228;48.140;11.488;2022-11-04T04:12:49;0.80;;;0.60;;
4430;SDS011;2228;48.140;11.488;2022-11-04T04:15:21;1.08;;;0.70;;
4430;SDS011;2228;48.140;11.488;2022-11-04T04:17:54;0.80;;;0.60;;
4430;SDS011;2228;48.140;11.488;2022-11-04T04:20:28;4.30;;;0.80;;
4430;SDS011;2228;48.140;11.488;2022-11-04T04:23:00;1.60;;;0.70;;
4430;SDS011;2228;48.140;11.488;2022-11-04T04:25:50;2.10;;;0.70;;
4430;SDS011;2228;48.140;11.488;2022-11-04T04:28:36;1.20;;;0.70;;
4430;SDS011;2228;48.140;11.488;2022-11-04T04:31:03;1.30;;;0.70;;
4430;SDS011;2228;48.140;11.488;2022-11-04T04:33:30;1.10;;;0.70;;
4430;SDS011;2228;48.140;11.488;2022-11-04T04:35:58;1.30;;;0.60;;
4430;SDS011;2228;48.140;11.488;2022-11-04T04:38:27;2.20;;;0.73;;
4430;SDS011;2228;48.140;11.488;2022-11-04T04:41:14;2.70;;;0.70;;
4430;SDS011;2228;48.140;11.488;2022-11-04T04:44:02;1.90;;;0.90;;
4430;SDS011;2228;48.140;11.488;2022-11-04T04:46:53;1.10;;;0.70;;
4430;SDS011;2228;48.140;11.488;2022-11-04T04:49:22;1.20;;;0.80;;
4430;SDS011;2228;48.140;11.488;2022-11-04T04:52:00;0.90;;;0.70;;
4430;SDS011;2228;48.140;11.488;2022-11-04T04:54:28;1.17;;;0.70;;
4430;SDS011;2228;48.140;11.488;2022-11-04T04:56:54;1.00;;;0.80;;
4430;SDS011;2228;48.140;11.488;2022-11-04T04:59:21;2.30;;;0.80;;
4430;SDS011;2228;48.140;11.488;2022-11-04T05:01:48;1.23;;;0.65;;
4430;SDS011;2228;48.140;11.488;2022-11-04T05:04:15;1.23;;;0.68;;
4430;SDS011;2228;48.140;11.488;2022-11-04T05:06:42;1.40;;;0.70;;
4430;SDS011;2228;48.140;11.488;2022-11-04T05:09:10;1.00;;;0.70;;
4430;SDS011;2228;48.140;11.488;2022-11-04T05:11:37;1.00;;;0.70;;
4430;SDS011;2228;48.140;11.488;2022-11-04T05:14:04;1.80;;;0.80;;
4430;SDS011;2228;48.140;11.488;2022-11-04T05:16:31;0.80;;;0.70;;
4430;SDS011;2228;48.140;11.488;2022-11-04T05:18:58;0.90;;;0.70;;
4430;SDS011;2228;48.140;11.488;2022-11-04T05:21:25;1.70;;;0.80;;
4430;SDS011;2228;48.140;11.488;2022-11-04T05:23:51;1.92;;;0.80;;
4430;SDS011;2228;48.140;11.488;2022-11-04T05:26:20;0.90;;;0.70;;
4430;SDS011;2228;48.140;11.488;2022-11-04T05:28:46;1.10;;;0.70;;
4430;SDS011;2228;48.140;11.488;2022-11-04T05:31:13;0.80;;;0.60;;
4430;SDS011;2228;48.140;11.488;2022-11-04T05:33:40;1.30;;;0.70;;
4430;SDS011;2228;48.140;11.488;2022-11-04T05:36:08;0.80;;;0.60;;
4430;SDS011;2228;48.140;11.488;2022-11-04T05:38:36;1.00;;;0.60;;
4430;SDS011;2228;48.140;11.488;2022-11-04T05:41:03;1.00;;;0.60;;
4430;SDS011;2228;48.140;11.488;2022-11-04T05:43:32;2.05;;;0.60;;
4430;SDS011;2228;48.140;11.488;2022-11-04T05:46:00;0.90;;;0.60;;
4430;SDS011;2228;48.140;11.488;2022-11-04T05:48:27;1.00;;;0.68;;
4430;SDS011;2228;48.140;11.488;2022-11-04T05:50:54;1.20;;;0.70;;
4430;SDS011;2228;48.140;11.488;2022-11-04T05:53:21;1.10;;;0.70;;
4430;SDS011;2228;48.140;11.488;2022-11-04T05:55:48;1.10;;;0.65;;
4430;SDS011;2228;48.140;11.488;2022-11-04T05:58:15;1.20;;;0.70;;
4430;SDS011;2228;48.140;11.488;2022-11-04T06:00:43;1.52;;;1.00;;
4430;SDS011;2228;48.140;11.488;2022-11-04T06:03:10;1.30;;;0.80;;
4430;SDS011;2228;48.140;11.488;2022-11-04T06:05:37;4.25;;;1.13;;
4430;SDS011;2228;48.140;11.488;2022-11-04T06:08:04;3.40;;;1.00;;
4430;SDS011;2228;48.140;11.488;2022-11-04T06:10:31;2.40;;;1.10;;
4430;SDS011;2228;48.140;11.488;2022-11-04T06:12:58;3.00;;;1.00;;
4430;SDS011;2228;48.140;11.488;2022-11-04T06:15:26;2.53;;;1.00;;
4430;SDS011;2228;48.140;11.488;2022-11-04T06:17:54;2.40;;;1.10;;
4430;SDS011;2228;48.140;11.488;2022-11-04T06:20:21;1.92;;;1.20;;
4430;SDS011;2228;48.140;11.488;2022-11-04T06:22:48;1.92;;;1.20;;
4430;SDS011;2228;48.140;11.488;2022-11-04T06:25:15;3.90;;;1.00;;
4430;SDS011;2228;48.140;11.488;2022-11-04T06:27:42;3.10;;;1.00;;
4430;SDS011;2228;48.140;11.488;2022-11-04T06:30:09;2.00;;;1.10;;
4430;SDS011;2228;48.140;11.488;2022-11-04T06:32:37;1.40;;;0.88;;
4430;SDS011;2228;48.140;11.488;2022-11-04T06:35:05;1.17;;;0.80;;
4430;SDS011;2228;48.140;11.488;2022-11-04T06:37:33;3.80;;;1.20;;
4430;SDS011;2228;48.140;11.488;2022-11-04T06:40:00;3.80;;;1.10;;
4430;SDS011;2228;48.140;11.488;2022-11-04T06:42:27;3.40;;;1.20;;
4430;SDS011;2228;48.140;11.488;2022-11-04T06:44:53;2.15;;;1.13;;
4430;SDS011;2228;48.140;11.488;2022-11-04T06:47:20;1.90;;;1.20;;
4430;SDS011;2228;48.140;11.488;2022-11-04T06:49:47;3.40;;;1.35;;
4430;SDS011;2228;48.140;11.488;2022-11-04T06:52:15;6.53;;;1.58;;
4430;SDS011;2228;48.140;11.488;2022-11-04T06:54:42;4.45;;;1.30;;
4430;SDS011;2228;48.140;11.488;2022-11-04T06:57:10;2.53;;;1.40;;
4430;SDS011;2228;48.140;11.488;2022-11-04T06:59:37;2.30;;;1.30;;
4430;SDS011;2228;48.140;11.488;2022-11-04T07:02:04;3.97;;;1.45;;
4430;SDS011;2228;48.140;11.488;2022-11-04T07:04:31;4.00;;;1.40;;
4430;SDS011;2228;48.140;11.488;2022-11-04T07:06:58;2.70;;;1.40;;
4430;SDS011;2228;48.140;11.488;2022-11-04T07:09:26;3.05;;;1.40;;
4430;SDS011;2228;48.140;11.488;2022-11-04T07:11:53;3.77;;;1.50;;
4430;SDS011;2228;48.140;11.488;2022-11-04T07:14:20;2.95;;;1.30;;
4430;SDS011;2228;48.140;11.488;2022-11-04T07:16:48;3.10;;;1.30;;
4430;SDS011;2228;48.140;11.488;2022-11-04T07:19:15;2.53;;;1.60;;
4430;SDS011;2228;48.140;11.488;2022-11-04T07:21:42;1.70;;;1.10;;
4430;SDS011;2228;48.140;11.488;2022-11-04T07:24:09;3.30;;;1.10;;
4430;SDS011;2228;48.140;11.488;2022-11-04T07:26:37;1.88;;;1.10;;
4430;SDS011;2228;48.140;11.488;2022-11-04T07:29:04;5.30;;;1.20;;
4430;SDS011;2228;48.140;11.488;2022-11-04T07:31:31;3.00;;;1.60;;
4430;SDS011;2228;48.140;11.488;2022-11-04T07:33:57;3.60;;;1.30;;
4430;SDS011;2228;48.140;11.488;2022-11-04T07:36:24;3.47;;;1.45;;
4430;SDS011;2228;48.140;11.488;2022-11-04T07:38:51;4.30;;;1.40;;
4430;SDS011;2228;48.140;11.488;2022-11-04T07:41:19;3.20;;;1.70;;
4430;SDS011;2228;48.140;11.488;2022-11-04T07:43:48;2.65;;;1.48;;
4430;SDS011;2228;48.140;11.488;2022-11-04T07:46:16;3.35;;;1.45;;
4430;SDS011;2228;48.140;11.488;2022-11-04T07:48:43;5.47;;;1.67;;
4430;SDS011;2228;48.140;11.488;2022-11-04T07:51:11;2.88;;;1.50;;
4430;SDS011;2228;48.140;11.488;2022-11-04T07:53:40;4.20;;;1.63;;
4430;SDS011;2228;48.140;11.488;2022-11-04T07:56:09;4.30;;;1.60;;
4430;SDS011;2228;48.140;11.488;2022-11-04T07:58:37;3.90;;;1.40;;
4430;SDS011;2228;48.140;11.488;2022-11-04T08:01:06;5.80;;;1.73;;
4430;SDS011;2228;48.140;11.488;2022-11-04T08:03:36;4.13;;;1.50;;
4430;SDS011;2228;48.140;11.488;2022-11-04T08:06:03;4.00;;;1.50;;
4430;SDS011;2228;48.140;11.488;2022-11-04T08:08:31;3.00;;;1.70;;
4430;SDS011;2228;48.140;11.488;2022-11-04T08:11:00;2.03;;;1.30;;
4430;SDS011;2228;48.140;11.488;2022-11-04T08:13:29;2.85;;;1.35;;
4430;SDS011;2228;48.140;11.488;2022-11-04T08:15:59;7.35;;;1.58;;
4430;SDS011;2228;48.140;11.488;2022-11-04T08:18:29;6.78;;;2.00;;
4430;SDS011;2228;48.140;11.488;2022-11-04T08:20:56;3.65;;;1.52;;
4430;SDS011;2228;48.140;11.488;2022-11-04T08:23:23;4.43;;;1.40;;
4430;SDS011;2228;48.140;11.488;2022-11-04T08:25:50;2.28;;;1.30;;
4430;SDS011;2228;48.140;11.488;2022-11-04T08:28:17;3.50;;;1.50;;
4430;SDS011;2228;48.140;11.488;2022-11-04T08:30:50;2.42;;;1.50;;
4430;SDS011;2228;48.140;11.488;2022-11-04T08:33:18;3.22;;;1.40;;
4430;SDS011;2228;48.140;11.488;2022-11-04T08:35:46;2.00;;;1.27;;
4430;SDS011;2228;48.140;11.488;2022-11-04T08:38:13;2.17;;;1.50;;
4430;SDS011;2228;48.140;11.488;2022-11-04T08:40:41;2.33;;;1.08;;
4430;SDS011;2228;48.140;11.488;2022-11-04T08:43:08;1.70;;;1.30;;
4430;SDS011;2228;48.140;11.488;2022-11-04T08:45:37;3.30;;;1.60;;
4430;SDS011;2228;48.140;11.488;2022-11-04T08:48:05;3.72;;;2.00;;
4430;SDS011;2228;48.140;11.488;2022-11-04T08:50:32;3.40;;;1.60;;
4430;SDS011;2228;48.140;11.488;2022-11-04T08:53:00;3.03;;;1.77;;
4430;SDS011;2228;48.140;11.488;2022-11-04T08:55:27;2.10;;;1.40;;
4430;SDS011;2228;48.140;11.488;2022-11-04T08:57:54;2.75;;;1.40;;
4430;SDS011;2228;48.140;11.488;2022-11-04T09:00:22;2.58;;;1.30;;
4430;SDS011;2228;48.140;11.488;2022-11-04T09:02:48;3.30;;;1.10;;
4430;SDS011;2228;48.140;11.488;2022-11-04T09:05:15;3.40;;;1.60;;
4430;SDS011;2228;48.140;11.488;2022-11-04T09:07:43;3.20;;;1.40;;
4430;SDS011;2228;48.140;11.488;2022-11-04T09:10:11;2.80;;;1.60;;
4430;SDS011;2228;48.140;11.488;2022-11-04T09:12:39;2.60;;;1.60;;
4430;SDS011;2228;48.140;11.488;2022-11-04T09:15:08;3.50;;;1.70;;
4430;SDS011;2228;48.140;11.488;2022-11-04T09:17:35;2.83;;;1.52;;
4430;SDS011;2228;48.140;11.488;2022-11-04T09:20:02;3.85;;;1.70;;
4430;SDS011;2228;48.140;11.488;2022-11-04T09:22:30;4.72;;;1.90;;
4430;SDS011;2228;48.140;11.488;2022-11-04T09:24:57;2.00;;;1.42;;
4430;SDS011;2228;48.140;11.488;2022-11-04T09:27:25;3.83;;;2.40;;
4430;SDS011;2228;48.140;11.488;2022-11-04T09:29:52;4.57;;;2.20;;
4430;SDS011;2228;48.140;11.488;2022-11-04T09:32:19;4.30;;;2.28;;
4430;SDS011;2228;48.140;11.488;2022-11-04T09:34:46;6.80;;;2.73;;
4430;SDS011;2228;48.140;11.488;2022-11-04T09:37:12;4.13;;;2.50;;
4430;SDS011;2228;48.140;11.488;2022-11-04T09:39:40;6.85;;;2.90;;
4430;SDS011;2228;48.140;11.488;2022-11-04T09:42:10;6.15;;;2.88;;
4430;SDS011;2228;48.140;11.488;2022-11-04T09:44:52;5.80;;;1.40;;
4430;SDS011;2228;48.140;11.488;2022-11-04T09:47:22;4.50;;;1.63;;
4430;SDS011;2228;48.140;11.488;2022-11-04T09:49:51;4.15;;;1.70;;
4430;SDS011;2228;48.140;11.488;2022-11-04T09:52:22;2.80;;;1.80;;
4430;SDS011;2228;48.140;11.488;2022-11-04T09:54:52;4.78;;;2.40;;
4430;SDS011;2228;48.140;11.488;2022-11-04T09:57:23;5.75;;;3.30;;
4430;SDS011;2228;48.140;11.488;2022-11-04T09:59:52;16.15;;;7.85;;
4430;SDS011;2228;48.140;11.488;2022-11-04T10:02:24;6.75;;;3.95;;
4430;SDS011;2228;48.140;11.488;2022-11-04T10:05:04;11.02;;;5.78;;
4430;SDS011;2228;48.140;11.488;2022-11-04T10:07:43;8.20;;;4.43;;
4430;SDS011;2228;48.140;11.488;2022-11-04T10:10:27;5.37;;;3.17;;
4430;SDS011;2228;48.140;11.488;2022-11-04T10:15:50;5.10;;;2.38;;
4430;SDS011;2228;48.140;11.488;2022-11-04T10:21:30;2.50;;;1.65;;
4430;SDS011;2228;48.140;11.488;2022-11-04T10:24:06;2.95;;;1.90;;
4430;SDS011;2228;48.140;11.488;2022-11-04T10:26:41;4.18;;;1.88;;
4430;SDS011;2228;48.140;11.488;2022-11-04T10:29:12;2.47;;;1.50;;
4430;SDS011;2228;48.140;11.488;2022-11-04T10:31:43;2.45;;;1.30;;
4430;SDS011;2228;48.140;11.488;2022-11-04T10:34:14;3.25;;;1.70;;
4430;SDS011;2228;48.140;11.488;2022-11-04T10:36:50;4.18;;;1.45;;
4430;SDS011;2228;48.140;11.488;2022-11-04T10:39:19;3.13;;;1.48;;
4430;SDS011;2228;48.140;11.488;2022-11-04T10:41:52;3.33;;;2.05;;
4430;SDS011;2228;48.140;11.488;2022-11-04T10:44:20;5.45;;;2.30;;
4430;SDS011;2228;48.140;11.488;2022-11-04T10:46:53;4.50;;;2.60;;
4430;SDS011;2228;48.140;11.488;2022-11-04T10:49:33;3.30;;;2.42;;
4430;SDS011;2228;48.140;11.488;2022-11-04T10:52:14;3.50;;;2.10;;
4430;SDS011;2228;48.140;11.488;2022-11-04T10:54:42;4.90;;;2.30;;
4430;SDS011;2228;48.140;11.488;2022-11-04T10:57:10;4.00;;;1.98;;
4430;SDS011;2228;48.140;11.488;2022-11-04T10:59:45;6.75;;;2.30;;
4430;SDS011;2228;48.140;11.488;2022-11-04T11:02:18;3.35;;;1.75;;
4430;SDS011;2228;48.140;11.488;2022-11-04T11:05:11;5.90;;;1.60;;
4430;SDS011;2228;48.140;11.488;2022-11-04T11:07:49;5.40;;;2.30;;
4430;SDS011;2228;48.140;11.488;2022-11-04T11:10:18;3.47;;;1.50;;
4430;SDS011;2228;48.140;11.488;2022-11-04T11:12:55;1.88;;;1.30;;
4430;SDS011;2228;48.140;11.488;2022-11-04T11:15:27;5.82;;;2.20;;
4430;SDS011;2228;48.140;11.488;2022-11-04T11:18:14;3.93;;;1.83;;
4430;SDS011;2228;48.140;11.488;2022-11-04T11:20:42;6.28;;;2.50;;
4430;SDS011;2228;48.140;11.488;2022-11-04T11:26:17;2.97;;;2.00;;
4430;SDS011;2228;48.140;11.488;2022-11-04T11:28:47;3.40;;;1.90;;
4430;SDS011;2228;48.140;11.488;2022-11-04T11:31:15;4.60;;;1.88;;
4430;SDS011;2228;48.140;11.488;2022-11-04T11:33:53;2.45;;;1.20;;
4430;SDS011;2228;48.140;11.488;2022-11-04T11:36:22;4.55;;;1.30;;
4430;SDS011;2228;48.140;11.488;2022-11-04T11:38:56;5.60;;;1.80;;
4430;SDS011;2228;48.140;11.488;2022-11-04T11:41:30;3.40;;;1.70;;
4430;SDS011;2228;48.140;11.488;2022-11-04T11:44:00;3.47;;;1.70;;
4430;SDS011;2228;48.140;11.488;2022-11-04T11:46:30;6.77;;;1.90;;
4430;SDS011;2228;48.140;11.488;2022-11-04T11:49:01;3.85;;;1.95;;
4430;SDS011;2228;48.140;11.488;2022-11-04T11:51:30;4.53;;;2.17;;
4430;SDS011;2228;48.140;11.488;2022-11-04T11:54:00;2.60;;;1.63;;
4430;SDS011;2228;48.140;11.488;2022-11-04T11:56:38;5.28;;;2.50;;
4430;SDS011;2228;48.140;11.488;2022-11-04T11:59:12;3.55;;;2.35;;
4430;SDS011;2228;48.140;11.488;2022-11-04T12:01:45;2.38;;;1.50;;
4430;SDS011;2228;48.140;11.488;2022-11-04T12:04:16;4.00;;;1.60;;
4430;SDS011;2228;48.140;11.488;2022-11-04T12:06:46;3.50;;;1.70;;
4430;SDS011;2228;48.140;11.488;2022-11-04T12:09:26;2.55;;;1.80;;
4430;SDS011;2228;48.140;11.488;2022-11-04T12:12:04;2.10;;;1.20;;
4430;SDS011;2228;48.140;11.488;2022-11-04T12:14:46;2.10;;;1.30;;
4430;SDS011;2228;48.140;11.488;2022-11-04T12:17:34;2.55;;;1.40;;
4430;SDS011;2228;48.140;11.488;2022-11-04T12:20:16;3.65;;;1.60;;
4430;SDS011;2228;48.140;11.488;2022-11-04T12:22:54;2.10;;;1.50;;
4430;SDS011;2228;48.140;11.488;2022-11-04T12:25:27;2.33;;;1.52;;
4430;SDS011;2228;48.140;11.488;2022-11-04T12:28:05;6.10;;;1.88;;
4430;SDS011;2228;48.140;11.488;2022-11-04T12:30:40;2.90;;;1.88;;
4430;SDS011;2228;48.140;11.488;2022-11-04T12:33:19;2.42;;;1.48;;
4430;SDS011;2228;48.140;11.488;2022-11-04T12:35:58;5.00;;;2.13;;
4430;SDS011;2228;48.140;11.488;2022-11-04T12:38:41;2.60;;;1.40;;
4430;SDS011;2228;48.140;11.488;2022-11-04T12:41:22;2.70;;;1.67;;
4430;SDS011;2228;48.140;11.488;2022-11-04T12:43:56;1.77;;;1.60;;
4430;SDS011;2228;48.140;11.488;2022-11-04T12:46:31;3.42;;;1.67;;
4430;SDS011;2228;48.140;11.488;2022-11-04T12:49:18;2.63;;;1.40;;
4430;SDS011;2228;48.140;11.488;2022-11-04T12:52:12;3.13;;;1.95;;
4430;SDS011;2228;48.140;11.488;2022-11-04T12:54:53;3.97;;;1.80;;
4430;SDS011;2228;48.140;11.488;2022-11-04T12:57:31;2.47;;;1.90;;
4430;SDS011;2228;48.140;11.488;2022-11-04T13:00:09;3.15;;;2.15;;
4430;SDS011;2228;48.140;11.488;2022-11-04T13:02:39;2.95;;;2.13;;
4430;SDS011;2228;48.140;11.488;2022-11-04T13:05:17;3.13;;;2.00;;
4430;SDS011;2228;48.140;11.488;2022-11-04T13:07:55;3.20;;;1.80;;
4430;SDS011;2228;48.140;11.488;2022-11-04T13:10:31;2.92;;;1.63;;
4430;SDS011;2228;48.140;11.488;2022-11-04T13:13:03;2.40;;;1.60;;
4430;SDS011;2228;48.140;11.488;2022-11-04T13:15:35;2.30;;;1.60;;
4430;SDS011;2228;48.140;11.488;2022-11-04T13:18:08;4.50;;;1.70;;
4430;SDS011;2228;48.140;11.488;2022-11-04T13:20:43;4.95;;;1.77;;
4430;SDS011;2228;48.140;11.488;2022-11-04T13:23:17;2.90;;;1.80;;
4430;SDS011;2228;48.140;11.488;2022-11-04T13:25:49;2.53;;;1.70;;
4430;SDS011;2228;48.140;11.488;2022-11-04T13:28:19;3.05;;;1.95;;
4430;SDS011;2228;48.140;11.488;2022-11-04T13:30:50;2.45;;;1.90;;
4430;SDS011;2228;48.140;11.488;2022-11-04T13:33:22;4.50;;;2.40;;
4430;SDS011;2228;48.140;11.488;2022-11-04T13:35:55;3.07;;;2.40;;
4430;SDS011;2228;48.140;11.488;2022-11-04T13:38:29;3.33;;;2.30;;
4430;SDS011;2228;48.140;11.488;2022-11-04T13:41:04;4.22;;;2.10;;
4430;SDS011;2228;48.140;11.488;2022-11-04T13:43:47;3.47;;;2.20;;
4430;SDS011;2228;48.140;11.488;2022-11-04T13:46:19;4.45;;;2.30;;
4430;SDS011;2228;48.140;11.488;2022-11-04T13:48:54;3.10;;;2.40;;
4430;SDS011;2228;48.140;11.488;2022-11-04T13:51:32;4.90;;;2.30;;
4430;SDS011;2228;48.140;11.488;2022-11-04T13:54:05;4.40;;;2.50;;
4430;SDS011;2228;48.140;11.488;2022-11-04T13:56:48;3.42;;;2.67;;
4430;SDS011;2228;48.140;11.488;2022-11-04T13:59:17;9.47;;;2.40;;
4430;SDS011;2228;48.140;11.488;2022-11-04T14:01:47;4.15;;;2.42;;
4430;SDS011;2228;48.140;11.488;2022-11-04T14:04:18;2.83;;;2.17;;
4430;SDS011;2228;48.140;11.488;2022-11-04T14:06:53;2.90;;;1.30;;
4430;SDS011;2228;48.140;11.488;2022-11-04T14:09:29;1.98;;;1.17;;
4430;SDS011;2228;48.140;11.488;2022-11-04T14:12:17;1.80;;;1.20;;
4430;SDS011;2228;48.140;11.488;2022-11-04T14:14:51;1.80;;;1.10;;
4430;SDS011;2228;48.140;11.488;2022-11-04T14:20:24;3.38;;;1.63;;
4430;SDS011;2228;48.140;11.488;2022-11-04T14:22:55;1.65;;;1.30;;
4430;SDS011;2228;48.140;11.488;2022-11-04T14:25:28;2.70;;;1.30;;
4430;SDS011;2228;48.140;11.488;2022-11-04T14:27:57;2.92;;;1.52;;
4430;SDS011;2228;48.140;11.488;2022-11-04T14:30:27;2.15;;;1.30;;
4430;SDS011;2228;48.140;11.488;2022-11-04T14:33:00;4.00;;;1.40;;
4430;SDS011;2228;48.140;11.488;2022-11-04T14:35:30;1.80;;;1.20;;
4430;SDS011;2228;48.140;11.488;2022-11-04T14:37:59;4.22;;;1.80;;
4430;SDS011;2228;48.140;11.488;2022-11-04T14:40:46;2.10;;;1.30;;
4430;SDS011;2228;48.140;11.488;2022-11-04T14:43:18;3.45;;;1.50;;
4430;SDS011;2228;48.140;11.488;2022-11-04T14:45:56;2.30;;;1.20;;
4430;SDS011;2228;48.140;11.488;2022-11-04T14:48:25;1.88;;;1.40;;
4430;SDS011;2228;48.140;11.488;2022-11-04T14:50:54;3.38;;;2.00;;
4430;SDS011;2228;48.140;11.488;2022-11-04T14:53:23;4.10;;;1.60;;
4430;SDS011;2228;48.140;11.488;2022-11-04T14:56:12;4.93;;;1.90;;
4430;SDS011;2228;48.140;11.488;2022-11-04T14:58:50;2.93;;;1.10;;
4430;SDS011;2228;48.140;11.488;2022-11-04T15:01:19;3.72;;;1.20;;
4430;SDS011;2228;48.140;11.488;2022-11-04T15:03:47;1.60;;;1.10;;
4430;SDS011;2228;48.140;11.488;2022-11-04T15:06:22;2.57;;;1.23;;
4430;SDS011;2228;48.140;11.488;2022-11-04T15:08:50;1.67;;;1.23;;
4430;SDS011;2228;48.140;11.488;2022-11-04T15:11:19;1.40;;;0.80;;
4430;SDS011;2228;48.140;11.488;2022-11-04T15:14:03;6.43;;;1.42;;
4430;SDS011;2228;48.140;11.488;2022-11-04T15:16:39;4.70;;;1.20;;
4430;SDS011;2228;48.140;11.488;2022-11-04T15:19:07;1.80;;;1.10;;
4430;SDS011;2228;48.140;11.488;2022-11-04T15:21:37;2.00;;;1.13;;
4430;SDS011;2228;48.140;11.488;2022-11-04T15:24:04;2.03;;;1.50;;
4430;SDS011;2228;48.140;11.488;2022-11-04T15:26:33;1.50;;;1.10;;
4430;SDS011;2228;48.140;11.488;2022-11-04T15:29:00;2.90;;;1.20;;
4430;SDS011;2228;48.140;11.488;2022-11-04T15:31:33;6.57;;;1.30;;
4430;SDS011;2228;48.140;11.488;2022-11-04T15:34:02;2.40;;;1.20;;
4430;SDS011;2228;48.140;11.488;2022-11-04T15:36:32;3.38;;;1.77;;
4430;SDS011;2228;48.140;11.488;2022-11-04T15:39:02;2.63;;;1.40;;
4430;SDS011;2228;48.140;11.488;2022-11-04T15:41:37;8.75;;;1.50;;